sensor_id;sensor_type;location;lat;lon;timestamp;temperature;humidity
57218;DHT22;43078;52.972;6.482;2022-11-21T00:01:11;3.00;99.90
57218;DHT22;43078;52.972;6.482;2022-11-21T00:03:37;3.00;99.90
57218;DHT22;43078;52.972;6.482;2022-11-21T00:06:03;3.00;99.90
57218;DHT22;43078;52.972;6.482;2022-11-21T00:08:29;3.00;99.90
57218;DHT22;43078;52.972;6.482;2022-11-21T00:10:58;3.00;99.90
57218;DHT22;43078;52.972;6.482;2022-11-21T00:13:24;3.00;99.90
57218;DHT22;43078;52.972;6.482;2022-11-21T00:15:49;3.00;99.90
57218;DHT22;43078;52.972;6.482;2022-11-21T00:18:15;3.00;99.90
57218;DHT22;43078;52.972;6.482;2022-11-21T00:20:41;3.00;99.90
57218;DHT22;43078;52.972;6.482;2022-11-21T00:23:08;3.00;99.90
57218;DHT22;43078;52.972;6.482;2022-11-21T00:25:34;3.00;99.90
57218;DHT22;43078;52.972;6.482;2022-11-21T00:27:59;3.00;99.90
57218;DHT22;43078;52.972;6.482;2022-11-21T00:30:25;3.00;99.90
57218;DHT22;43078;52.972;6.482;2022-11-21T00:32:51;3.00;99.90
57218;DHT22;43078;52.972;6.482;2022-11-21T00:35:16;3.00;99.90
57218;DHT22;43078;52.972;6.482;2022-11-21T00:37:42;3.00;99.90
57218;DHT22;43078;52.972;6.482;2022-11-21T00:40:08;3.00;99.90
57218;DHT22;43078;52.972;6.482;2022-11-21T00:42:34;3.00;99.90
57218;DHT22;43078;52.972;6.482;2022-11-21T00:44:59;3.10;99.90
57218;DHT22;43078;52.972;6.482;2022-11-21T00:47:25;3.10;99.90
57218;DHT22;43078;52.972;6.482;2022-11-21T00:49:50;3.10;99.90
57218;DHT22;43078;52.972;6.482;2022-11-21T00:52:16;3.10;99.90
57218;DHT22;43078;52.972;6.482;2022-11-21T00:54:42;3.10;99.90
57218;DHT22;43078;52.972;6.482;2022-11-21T00:57:08;3.10;99.90
57218;DHT22;43078;52.972;6.482;2022-11-21T00:59:33;3.10;99.90
57218;DHT22;43078;52.972;6.482;2022-11-21T01:01:59;3.10;99.90
57218;DHT22;43078;52.972;6.482;2022-11-21T01:04:25;3.00;99.90
57218;DHT22;43078;52.972;6.482;2022-11-21T01:06:50;3.00;99.90
57218;DHT22;43078;52.972;6.482;2022-11-21T01:09:16;3.00;99.90
57218;DHT22;43078;52.972;6.482;2022-11-21T01:11:41;3.00;99.90
57218;DHT22;43078;52.972;6.482;2022-11-21T01:14:07;3.00;99.90
57218;DHT22;43078;52.972;6.482;2022-11-21T01:16:33;3.00;99.90
57218;DHT22;43078;52.972;6.482;2022-11-21T01:18:59;3.00;99.90
57218;DHT22;43078;52.972;6.482;2022-11-21T01:21:27;3.00;99.90
57218;DHT22;43078;52.972;6.482;2022-11-21T01:23:54;3.00;99.90
57218;DHT22;43078;52.972;6.482;2022-11-21T01:26:25;3.00;99.90
57218;DHT22;43078;52.972;6.482;2022-11-21T01:28:51;3.00;99.90
57218;DHT22;43078;52.972;6.482;2022-11-21T01:31:18;2.90;99.90
57218;DHT22;43078;52.972;6.482;2022-11-21T01:33:44;2.90;99.90
57218;DHT22;43078;52.972;6.482;2022-11-21T01:36:11;2.90;99.90
57218;DHT22;43078;52.972;6.482;2022-11-21T01:38:38;2.90;99.90
57218;DHT22;43078;52.972;6.482;2022-11-21T01:41:05;2.90;99.90
57218;DHT22;43078;52.972;6.482;2022-11-21T01:43:31;2.90;99.90
57218;DHT22;43078;52.972;6.482;2022-11-21T01:54:23;2.80;99.90
57218;DHT22;43078;52.972;6.482;2022-11-21T01:57:23;2.80;99.90
57218;DHT22;43078;52.972;6.482;2022-11-21T02:00:06;2.80;99.90
57218;DHT22;43078;52.972;6.482;2022-11-21T02:02:40;2.70;99.90
57218;DHT22;43078;52.972;6.482;2022-11-21T02:05:11;2.70;99.90
57218;DHT22;43078;52.972;6.482;2022-11-21T02:07:40;2.80;99.90
57218;DHT22;43078;52.972;6.482;2022-11-21T02:10:08;2.70;99.90
57218;DHT22;43078;52.972;6.482;2022-11-21T02:12:49;2.70;99.90
57218;DHT22;43078;52.972;6.482;2022-11-21T02:15:16;2.70;99.90
57218;DHT22;43078;52.972;6.482;2022-11-21T02:17:42;2.70;99.90
57218;DHT22;43078;52.972;6.482;2022-11-21T02:20:16;2.70;99.90
57218;DHT22;43078;52.972;6.482;2022-11-21T02:25:32;2.60;99.90
57218;DHT22;43078;52.972;6.482;2022-11-21T02:28:01;2.60;99.90
57218;DHT22;43078;52.972;6.482;2022-11-21T02:30:31;2.60;99.90
57218;DHT22;43078;52.972;6.482;2022-11-21T02:32:59;2.60;99.90
57218;DHT22;43078;52.972;6.482;2022-11-21T02:35:25;2.60;99.90
57218;DHT22;43078;52.972;6.482;2022-11-21T02:37:56;2.60;99.90
57218;DHT22;43078;52.972;6.482;2022-11-21T02:40:26;2.50;99.90
57218;DHT22;43078;52.972;6.482;2022-11-21T02:43:21;2.50;99.90
57218;DHT22;43078;52.972;6.482;2022-11-21T02:45:47;2.50;99.90
57218;DHT22;43078;52.972;6.482;2022-11-21T02:48:13;2.50;99.90
57218;DHT22;43078;52.972;6.482;2022-11-21T02:50:40;2.40;99.90
57218;DHT22;43078;52.972;6.482;2022-11-21T02:53:10;2.40;99.90
57218;DHT22;43078;52.972;6.482;2022-11-21T02:55:36;2.40;99.90
57218;DHT22;43078;52.972;6.482;2022-11-21T02:58:03;2.40;99.90
57218;DHT22;43078;52.972;6.482;2022-11-21T03:00:29;2.40;99.90
57218;DHT22;43078;52.972;6.482;2022-11-21T03:02:54;2.40;99.90
57218;DHT22;43078;52.972;6.482;2022-11-21T03:05:20;2.40;99.90
57218;DHT22;43078;52.972;6.482;2022-11-21T03:07:47;2.30;99.90
57218;DHT22;43078;52.972;6.482;2022-11-21T03:10:13;2.30;99.90
57218;DHT22;43078;52.972;6.482;2022-11-21T03:12:40;2.30;99.90
57218;DHT22;43078;52.972;6.482;2022-11-21T03:15:08;2.20;99.90
57218;DHT22;43078;52.972;6.482;2022-11-21T03:17:34;2.20;99.90
57218;DHT22;43078;52.972;6.482;2022-11-21T03:20:00;2.20;99.90
57218;DHT22;43078;52.972;6.482;2022-11-21T03:22:25;2.10;99.90
57218;DHT22;43078;52.972;6.482;2022-11-21T03:24:51;2.10;99.90
57218;DHT22;43078;52.972;6.482;2022-11-21T03:27:17;2.10;99.90
57218;DHT22;43078;52.972;6.482;2022-11-21T03:29:43;2.10;99.90
57218;DHT22;43078;52.972;6.482;2022-11-21T03:32:08;2.00;99.90
57218;DHT22;43078;52.972;6.482;2022-11-21T03:34:34;2.00;99.90
57218;DHT22;43078;52.972;6.482;2022-11-21T03:37:00;2.00;99.90
57218;DHT22;43078;52.972;6.482;2022-11-21T03:39:26;1.90;99.90
57218;DHT22;43078;52.972;6.482;2022-11-21T03:41:51;1.90;99.90
57218;DHT22;43078;52.972;6.482;2022-11-21T03:44:17;1.90;99.90
57218;DHT22;43078;52.972;6.482;2022-11-21T03:46:44;1.90;99.90
57218;DHT22;43078;52.972;6.482;2022-11-21T03:49:11;1.90;99.90
57218;DHT22;43078;52.972;6.482;2022-11-21T03:51:37;1.80;99.90
57218;DHT22;43078;52.972;6.482;2022-11-21T03:54:03;1.80;99.90
57218;DHT22;43078;52.972;6.482;2022-11-21T03:56:29;1.80;99.90
57218;DHT22;43078;52.972;6.482;2022-11-21T03:58:56;1.70;99.90
57218;DHT22;43078;52.972;6.482;2022-11-21T04:01:22;1.70;99.90
57218;DHT22;43078;52.972;6.482;2022-11-21T04:03:48;1.70;99.90
57218;DHT22;43078;52.972;6.482;2022-11-21T04:06:16;1.70;99.90
57218;DHT22;43078;52.972;6.482;2022-11-21T04:08:42;1.70;99.90
57218;DHT22;43078;52.972;6.482;2022-11-21T04:11:08;1.70;99.90
57218;DHT22;43078;52.972;6.482;2022-11-21T04:13:34;1.60;99.90
57218;DHT22;43078;52.972;6.482;2022-11-21T04:16:00;1.60;99.90
57218;DHT22;43078;52.972;6.482;2022-11-21T04:18:25;1.60;99.90
57218;DHT22;43078;52.972;6.482;2022-11-21T04:20:58;1.50;99.90
57218;DHT22;43078;52.972;6.482;2022-11-21T04:23:25;1.50;99.90
57218;DHT22;43078;52.972;6.482;2022-11-21T04:25:50;1.50;99.90
57218;DHT22;43078;52.972;6.482;2022-11-21T04:28:16;1.50;99.90
57218;DHT22;43078;52.972;6.482;2022-11-21T04:30:42;1.50;99.90
57218;DHT22;43078;52.972;6.482;2022-11-21T04:33:07;1.50;99.90
57218;DHT22;43078;52.972;6.482;2022-11-21T04:35:34;1.50;99.90
57218;DHT22;43078;52.972;6.482;2022-11-21T04:37:59;1.40;99.90
57218;DHT22;43078;52.972;6.482;2022-11-21T04:40:25;1.50;99.90
57218;DHT22;43078;52.972;6.482;2022-11-21T04:42:50;1.50;99.90
57218;DHT22;43078;52.972;6.482;2022-11-21T04:45:16;1.50;99.90
57218;DHT22;43078;52.972;6.482;2022-11-21T04:47:44;1.40;99.90
57218;DHT22;43078;52.972;6.482;2022-11-21T04:50:12;1.40;99.90
57218;DHT22;43078;52.972;6.482;2022-11-21T04:52:38;1.40;99.90
57218;DHT22;43078;52.972;6.482;2022-11-21T04:55:04;1.40;99.90
57218;DHT22;43078;52.972;6.482;2022-11-21T04:57:30;1.40;99.90
57218;DHT22;43078;52.972;6.482;2022-11-21T04:59:56;1.40;99.90
57218;DHT22;43078;52.972;6.482;2022-11-21T05:02:22;1.40;99.90
57218;DHT22;43078;52.972;6.482;2022-11-21T05:04:48;1.30;99.90
57218;DHT22;43078;52.972;6.482;2022-11-21T05:07:14;1.30;99.90
57218;DHT22;43078;52.972;6.482;2022-11-21T05:09:40;1.30;99.90
57218;DHT22;43078;52.972;6.482;2022-11-21T05:12:07;1.30;99.90
57218;DHT22;43078;52.972;6.482;2022-11-21T05:14:52;1.30;99.90
57218;DHT22;43078;52.972;6.482;2022-11-21T05:17:17;1.30;99.90
57218;DHT22;43078;52.972;6.482;2022-11-21T05:19:43;1.30;99.90
57218;DHT22;43078;52.972;6.482;2022-11-21T05:22:08;1.30;99.90
57218;DHT22;43078;52.972;6.482;2022-11-21T05:24:34;1.20;99.90
57218;DHT22;43078;52.972;6.482;2022-11-21T05:27:00;1.20;99.90
57218;DHT22;43078;52.972;6.482;2022-11-21T05:29:25;1.20;99.90
57218;DHT22;43078;52.972;6.482;2022-11-21T05:31:51;1.20;99.90
57218;DHT22;43078;52.972;6.482;2022-11-21T05:34:19;1.20;99.90
57218;DHT22;43078;52.972;6.482;2022-11-21T05:36:45;1.20;99.90
57218;DHT22;43078;52.972;6.482;2022-11-21T05:39:10;1.20;99.90
57218;DHT22;43078;52.972;6.482;2022-11-21T05:41:36;1.20;99.90
57218;DHT22;43078;52.972;6.482;2022-11-21T05:44:02;1.20;99.90
57218;DHT22;43078;52.972;6.482;2022-11-21T05:46:27;1.10;99.90
57218;DHT22;43078;52.972;6.482;2022-11-21T05:48:53;1.10;99.90
57218;DHT22;43078;52.972;6.482;2022-11-21T05:51:20;1.10;99.90
57218;DHT22;43078;52.972;6.482;2022-11-21T05:53:46;1.10;99.90
57218;DHT22;43078;52.972;6.482;2022-11-21T05:56:14;1.10;99.90
57218;DHT22;43078;52.972;6.482;2022-11-21T05:58:40;1.00;99.90
57218;DHT22;43078;52.972;6.482;2022-11-21T06:01:07;1.00;99.90
57218;DHT22;43078;52.972;6.482;2022-11-21T06:03:35;1.00;99.90
57218;DHT22;43078;52.972;6.482;2022-11-21T06:06:13;1.00;99.90
57218;DHT22;43078;52.972;6.482;2022-11-21T06:08:41;1.00;99.90
57218;DHT22;43078;52.972;6.482;2022-11-21T06:11:09;1.00;99.90
57218;DHT22;43078;52.972;6.482;2022-11-21T06:13:35;1.00;99.90
57218;DHT22;43078;52.972;6.482;2022-11-21T06:16:15;1.00;99.90
57218;DHT22;43078;52.972;6.482;2022-11-21T06:18:43;1.00;99.90
57218;DHT22;43078;52.972;6.482;2022-11-21T06:21:15;1.00;99.90
57218;DHT22;43078;52.972;6.482;2022-11-21T06:23:42;1.00;99.90
57218;DHT22;43078;52.972;6.482;2022-11-21T06:26:11;1.00;99.90
57218;DHT22;43078;52.972;6.482;2022-11-21T06:28:38;1.00;99.90
57218;DHT22;43078;52.972;6.482;2022-11-21T06:31:05;1.00;99.90
57218;DHT22;43078;52.972;6.482;2022-11-21T06:33:31;1.00;99.90
57218;DHT22;43078;52.972;6.482;2022-11-21T06:36:00;1.00;99.90
57218;DHT22;43078;52.972;6.482;2022-11-21T06:38:26;1.10;99.90
57218;DHT22;43078;52.972;6.482;2022-11-21T06:40:52;1.10;99.90
57218;DHT22;43078;52.972;6.482;2022-11-21T06:43:17;1.10;99.90
57218;DHT22;43078;52.972;6.482;2022-11-21T06:45:43;1.10;99.90
57218;DHT22;43078;52.972;6.482;2022-11-21T06:48:08;1.10;99.90
57218;DHT22;43078;52.972;6.482;2022-11-21T06:50:34;1.10;99.90
57218;DHT22;43078;52.972;6.482;2022-11-21T06:53:00;1.10;99.90
57218;DHT22;43078;52.972;6.482;2022-11-21T06:55:26;1.10;99.90
57218;DHT22;43078;52.972;6.482;2022-11-21T06:57:56;1.10;99.90
57218;DHT22;43078;52.972;6.482;2022-11-21T07:00:22;1.10;99.90
57218;DHT22;43078;52.972;6.482;2022-11-21T07:02:49;1.10;99.90
57218;DHT22;43078;52.972;6.482;2022-11-21T07:05:14;1.10;99.90
57218;DHT22;43078;52.972;6.482;2022-11-21T07:07:40;1.10;99.90
57218;DHT22;43078;52.972;6.482;2022-11-21T07:10:06;1.10;99.90
57218;DHT22;43078;52.972;6.482;2022-11-21T07:12:33;1.00;99.90
57218;DHT22;43078;52.972;6.482;2022-11-21T07:15:17;1.10;99.90
57218;DHT22;43078;52.972;6.482;2022-11-21T07:17:43;1.00;99.90
57218;DHT22;43078;52.972;6.482;2022-11-21T07:20:09;1.00;99.90
57218;DHT22;43078;52.972;6.482;2022-11-21T07:22:35;1.00;99.90
57218;DHT22;43078;52.972;6.482;2022-11-21T07:25:00;0.90;99.90
57218;DHT22;43078;52.972;6.482;2022-11-21T07:27:26;0.90;99.90
57218;DHT22;43078;52.972;6.482;2022-11-21T07:29:52;0.90;99.90
57218;DHT22;43078;52.972;6.482;2022-11-21T07:32:17;0.90;99.90
57218;DHT22;43078;52.972;6.482;2022-11-21T07:34:43;0.90;99.90
57218;DHT22;43078;52.972;6.482;2022-11-21T07:37:09;0.80;99.90
57218;DHT22;43078;52.972;6.482;2022-11-21T07:39:34;0.80;99.90
57218;DHT22;43078;52.972;6.482;2022-11-21T07:42:00;0.80;99.90
57218;DHT22;43078;52.972;6.482;2022-11-21T07:44:26;0.80;99.90
57218;DHT22;43078;52.972;6.482;2022-11-21T07:46:55;0.80;99.90
57218;DHT22;43078;52.972;6.482;2022-11-21T07:49:21;0.80;99.90
57218;DHT22;43078;52.972;6.482;2022-11-21T07:51:46;0.70;99.90
57218;DHT22;43078;52.972;6.482;2022-11-21T07:54:12;0.80;99.90
57218;DHT22;43078;52.972;6.482;2022-11-21T07:56:37;0.80;99.90
57218;DHT22;43078;52.972;6.482;2022-11-21T07:59:03;0.80;99.90
57218;DHT22;43078;52.972;6.482;2022-11-21T08:01:29;0.70;99.90
57218;DHT22;43078;52.972;6.482;2022-11-21T08:03:54;0.70;99.90
57218;DHT22;43078;52.972;6.482;2022-11-21T08:06:23;0.70;99.90
57218;DHT22;43078;52.972;6.482;2022-11-21T08:08:52;0.70;99.90
57218;DHT22;43078;52.972;6.482;2022-11-21T08:11:18;0.70;99.90
57218;DHT22;43078;52.972;6.482;2022-11-21T08:13:44;0.60;99.90
57218;DHT22;43078;52.972;6.482;2022-11-21T08:16:09;0.60;99.90
57218;DHT22;43078;52.972;6.482;2022-11-21T08:18:35;0.60;99.90
57218;DHT22;43078;52.972;6.482;2022-11-21T08:21:02;0.60;99.90
57218;DHT22;43078;52.972;6.482;2022-11-21T08:23:28;0.60;99.90
57218;DHT22;43078;52.972;6.482;2022-11-21T08:25:53;0.60;99.90
57218;DHT22;43078;52.972;6.482;2022-11-21T08:28:19;0.60;99.90
57218;DHT22;43078;52.972;6.482;2022-11-21T08:30:44;0.60;99.90
57218;DHT22;43078;52.972;6.482;2022-11-21T08:33:10;0.60;99.90
57218;DHT22;43078;52.972;6.482;2022-11-21T08:35:36;0.60;99.90
57218;DHT22;43078;52.972;6.482;2022-11-21T08:38:05;0.60;99.90
57218;DHT22;43078;52.972;6.482;2022-11-21T08:40:31;0.60;99.90
57218;DHT22;43078;52.972;6.482;2022-11-21T08:42:58;0.60;99.90
57218;DHT22;43078;52.972;6.482;2022-11-21T08:45:24;0.60;99.90
57218;DHT22;43078;52.972;6.482;2022-11-21T08:47:51;0.70;99.90
57218;DHT22;43078;52.972;6.482;2022-11-21T08:50:17;0.70;99.90
57218;DHT22;43078;52.972;6.482;2022-11-21T08:52:42;0.70;99.90
57218;DHT22;43078;52.972;6.482;2022-11-21T08:55:08;0.70;99.90
57218;DHT22;43078;52.972;6.482;2022-11-21T08:57:41;0.70;99.90
57218;DHT22;43078;52.972;6.482;2022-11-21T09:00:09;0.80;99.90
57218;DHT22;43078;52.972;6.482;2022-11-21T09:02:37;0.80;99.90
57218;DHT22;43078;52.972;6.482;2022-11-21T09:05:02;0.90;99.90
57218;DHT22;43078;52.972;6.482;2022-11-21T09:07:28;0.90;99.90
57218;DHT22;43078;52.972;6.482;2022-11-21T09:09:54;0.90;99.90
57218;DHT22;43078;52.972;6.482;2022-11-21T09:12:19;0.90;99.90
57218;DHT22;43078;52.972;6.482;2022-11-21T09:14:45;1.00;99.90
57218;DHT22;43078;52.972;6.482;2022-11-21T09:17:29;1.00;99.90
57218;DHT22;43078;52.972;6.482;2022-11-21T09:20:14;1.00;99.90
57218;DHT22;43078;52.972;6.482;2022-11-21T09:22:39;1.10;99.90
57218;DHT22;43078;52.972;6.482;2022-11-21T09:25:05;1.10;99.90
57218;DHT22;43078;52.972;6.482;2022-11-21T09:27:31;1.10;99.90
57218;DHT22;43078;52.972;6.482;2022-11-21T09:29:56;1.10;99.90
57218;DHT22;43078;52.972;6.482;2022-11-21T09:32:22;1.10;99.90
57218;DHT22;43078;52.972;6.482;2022-11-21T09:34:48;1.20;99.90
57218;DHT22;43078;52.972;6.482;2022-11-21T09:37:14;1.20;99.90
57218;DHT22;43078;52.972;6.482;2022-11-21T09:39:39;1.20;99.90
57218;DHT22;43078;52.972;6.482;2022-11-21T09:45:20;1.30;99.90
57218;DHT22;43078;52.972;6.482;2022-11-21T09:47:50;1.30;99.90
57218;DHT22;43078;52.972;6.482;2022-11-21T09:50:31;1.30;99.90
57218;DHT22;43078;52.972;6.482;2022-11-21T09:53:32;1.30;99.90
57218;DHT22;43078;52.972;6.482;2022-11-21T09:56:03;1.40;99.90
57218;DHT22;43078;52.972;6.482;2022-11-21T09:58:40;1.40;99.90
57218;DHT22;43078;52.972;6.482;2022-11-21T10:01:15;1.50;99.90
57218;DHT22;43078;52.972;6.482;2022-11-21T10:03:43;1.40;99.90
57218;DHT22;43078;52.972;6.482;2022-11-21T10:06:18;1.50;99.90
57218;DHT22;43078;52.972;6.482;2022-11-21T10:14:44;1.60;99.90
57218;DHT22;43078;52.972;6.482;2022-11-21T10:17:15;1.60;99.90
57218;DHT22;43078;52.972;6.482;2022-11-21T10:20:40;1.60;99.90
57218;DHT22;43078;52.972;6.482;2022-11-21T10:22:59;1.60;99.90
57218;DHT22;43078;52.972;6.482;2022-11-21T10:25:38;1.60;99.90
57218;DHT22;43078;52.972;6.482;2022-11-21T10:30:42;1.70;99.90
57218;DHT22;43078;52.972;6.482;2022-11-21T10:33:14;1.70;99.90
57218;DHT22;43078;52.972;6.482;2022-11-21T10:35:54;1.70;99.90
57218;DHT22;43078;52.972;6.482;2022-11-21T10:38:26;1.80;99.90
57218;DHT22;43078;52.972;6.482;2022-11-21T10:41:05;1.80;99.90
57218;DHT22;43078;52.972;6.482;2022-11-21T10:46:21;1.90;99.90
57218;DHT22;43078;52.972;6.482;2022-11-21T10:49:01;1.90;99.90
57218;DHT22;43078;52.972;6.482;2022-11-21T10:51:46;1.90;99.90
57218;DHT22;43078;52.972;6.482;2022-11-21T10:54:14;2.00;99.90
57218;DHT22;43078;52.972;6.482;2022-11-21T10:59:27;2.10;99.90
57218;DHT22;43078;52.972;6.482;2022-11-21T11:01:55;2.10;99.90
57218;DHT22;43078;52.972;6.482;2022-11-21T11:04:21;2.10;99.90
57218;DHT22;43078;52.972;6.482;2022-11-21T11:06:47;2.20;99.90
57218;DHT22;43078;52.972;6.482;2022-11-21T11:09:30;2.20;99.90
57218;DHT22;43078;52.972;6.482;2022-11-21T11:12:19;2.30;99.90
57218;DHT22;43078;52.972;6.482;2022-11-21T11:14:54;2.30;99.90
57218;DHT22;43078;52.972;6.482;2022-11-21T11:17:31;2.30;99.90
57218;DHT22;43078;52.972;6.482;2022-11-21T11:20:05;2.30;99.90
57218;DHT22;43078;52.972;6.482;2022-11-21T11:22:32;2.40;99.90
57218;DHT22;43078;52.972;6.482;2022-11-21T11:24:58;2.40;99.90
57218;DHT22;43078;52.972;6.482;2022-11-21T11:27:28;2.40;99.90
57218;DHT22;43078;52.972;6.482;2022-11-21T11:29:53;2.50;99.90
57218;DHT22;43078;52.972;6.482;2022-11-21T11:32:20;2.50;99.90
57218;DHT22;43078;52.972;6.482;2022-11-21T11:35:23;2.50;99.90
57218;DHT22;43078;52.972;6.482;2022-11-21T11:37:59;2.50;99.90
57218;DHT22;43078;52.972;6.482;2022-11-21T11:40:40;2.50;99.90
57218;DHT22;43078;52.972;6.482;2022-11-21T11:43:21;2.60;99.90
57218;DHT22;43078;52.972;6.482;2022-11-21T11:49:00;2.70;99.90
57218;DHT22;43078;52.972;6.482;2022-11-21T11:51:35;2.70;99.90
57218;DHT22;43078;52.972;6.482;2022-11-21T11:54:28;2.70;99.90
57218;DHT22;43078;52.972;6.482;2022-11-21T11:56:56;2.80;99.90
57218;DHT22;43078;52.972;6.482;2022-11-21T11:59:36;2.80;99.90
57218;DHT22;43078;52.972;6.482;2022-11-21T12:04:39;2.80;99.90
57218;DHT22;43078;52.972;6.482;2022-11-21T12:10:10;2.80;99.90
57218;DHT22;43078;52.972;6.482;2022-11-21T12:12:41;2.90;99.90
57218;DHT22;43078;52.972;6.482;2022-11-21T12:23:34;2.90;99.90
57218;DHT22;43078;52.972;6.482;2022-11-21T12:28:51;3.00;99.90
57218;DHT22;43078;52.972;6.482;2022-11-21T12:36:59;3.00;99.90
57218;DHT22;43078;52.972;6.482;2022-11-21T12:45:42;3.10;99.90
57218;DHT22;43078;52.972;6.482;2022-11-21T12:54:51;3.20;99.90
57218;DHT22;43078;52.972;6.482;2022-11-21T12:59:34;3.30;99.90
57218;DHT22;43078;52.972;6.482;2022-11-21T13:02:06;3.30;99.90
57218;DHT22;43078;52.972;6.482;2022-11-21T13:04:38;3.30;99.90
57218;DHT22;43078;52.972;6.482;2022-11-21T13:07:05;3.40;99.90
57218;DHT22;43078;52.972;6.482;2022-11-21T13:09:39;3.40;99.90
57218;DHT22;43078;52.972;6.482;2022-11-21T13:12:15;3.40;99.90
57218;DHT22;43078;52.972;6.482;2022-11-21T13:14:51;3.50;99.90
57218;DHT22;43078;52.972;6.482;2022-11-21T13:27:36;3.60;99.90
57218;DHT22;43078;52.972;6.482;2022-11-21T13:32:54;3.60;99.90
57218;DHT22;43078;52.972;6.482;2022-11-21T13:57:03;3.80;99.90
57218;DHT22;43078;52.972;6.482;2022-11-21T14:07:32;3.90;99.90
57218;DHT22;43078;52.972;6.482;2022-11-21T14:10:16;3.90;99.90
57218;DHT22;43078;52.972;6.482;2022-11-21T14:12:46;3.90;99.90
57218;DHT22;43078;52.972;6.482;2022-11-21T14:15:18;3.90;99.90
57218;DHT22;43078;52.972;6.482;2022-11-21T14:17:49;4.00;99.90
57218;DHT22;43078;52.972;6.482;2022-11-21T14:20:34;4.00;99.90
57218;DHT22;43078;52.972;6.482;2022-11-21T14:23:21;4.00;99.90
57218;DHT22;43078;52.972;6.482;2022-11-21T14:25:53;4.00;99.90
57218;DHT22;43078;52.972;6.482;2022-11-21T14:28:31;4.10;99.90
57218;DHT22;43078;52.972;6.482;2022-11-21T14:31:00;4.10;99.90
57218;DHT22;43078;52.972;6.482;2022-11-21T14:36:13;4.10;99.90
57218;DHT22;43078;52.972;6.482;2022-11-21T14:38:58;4.10;99.90
57218;DHT22;43078;52.972;6.482;2022-11-21T14:46:32;4.20;99.90
57218;DHT22;43078;52.972;6.482;2022-11-21T14:49:27;4.20;99.90
57218;DHT22;43078;52.972;6.482;2022-11-21T14:52:02;4.30;99.90
57218;DHT22;43078;52.972;6.482;2022-11-21T14:54:33;4.20;99.90
57218;DHT22;43078;52.972;6.482;2022-11-21T14:57:06;4.20;99.90
57218;DHT22;43078;52.972;6.482;2022-11-21T15:05:44;4.20;99.90
57218;DHT22;43078;52.972;6.482;2022-11-21T15:15:41;4.30;99.90
57218;DHT22;43078;52.972;6.482;2022-11-21T15:18:22;4.30;99.90
57218;DHT22;43078;52.972;6.482;2022-11-21T15:20:51;4.20;99.90
57218;DHT22;43078;52.972;6.482;2022-11-21T15:23:35;4.20;99.90
57218;DHT22;43078;52.972;6.482;2022-11-21T15:26:03;4.30;99.90
57218;DHT22;43078;52.972;6.482;2022-11-21T15:28:29;4.30;99.90
57218;DHT22;43078;52.972;6.482;2022-11-21T15:31:18;4.30;99.90
57218;DHT22;43078;52.972;6.482;2022-11-21T15:36:30;4.30;99.90
57218;DHT22;43078;52.972;6.482;2022-11-21T15:39:04;4.30;99.90
57218;DHT22;43078;52.972;6.482;2022-11-21T15:41:34;4.30;99.90
57218;DHT22;43078;52.972;6.482;2022-11-21T15:46:31;4.30;99.90
57218;DHT22;43078;52.972;6.482;2022-11-21T15:49:05;4.30;99.90
57218;DHT22;43078;52.972;6.482;2022-11-21T15:51:35;4.30;99.90
57218;DHT22;43078;52.972;6.482;2022-11-21T15:54:02;4.30;99.90
57218;DHT22;43078;52.972;6.482;2022-11-21T15:56:28;4.30;99.90
57218;DHT22;43078;52.972;6.482;2022-11-21T15:59:03;4.30;99.90
57218;DHT22;43078;52.972;6.482;2022-11-21T16:01:38;4.30;99.90
57218;DHT22;43078;52.972;6.482;2022-11-21T16:04:19;4.30;99.90
57218;DHT22;43078;52.972;6.482;2022-11-21T16:06:47;4.30;99.90
57218;DHT22;43078;52.972;6.482;2022-11-21T16:09:13;4.30;99.90
57218;DHT22;43078;52.972;6.482;2022-11-21T16:11:38;4.30;99.90
57218;DHT22;43078;52.972;6.482;2022-11-21T16:14:06;4.30;99.90
57218;DHT22;43078;52.972;6.482;2022-11-21T16:16:36;4.30;99.90
57218;DHT22;43078;52.972;6.482;2022-11-21T16:19:02;4.30;99.90
57218;DHT22;43078;52.972;6.482;2022-11-21T16:21:28;4.30;99.90
57218;DHT22;43078;52.972;6.482;2022-11-21T16:23:54;4.40;99.90
57218;DHT22;43078;52.972;6.482;2022-11-21T16:26:20;4.40;99.90
57218;DHT22;43078;52.972;6.482;2022-11-21T16:28:46;4.40;99.90
57218;DHT22;43078;52.972;6.482;2022-11-21T16:31:23;4.40;99.90
57218;DHT22;43078;52.972;6.482;2022-11-21T16:33:49;4.40;99.90
57218;DHT22;43078;52.972;6.482;2022-11-21T16:36:25;4.40;99.90
57218;DHT22;43078;52.972;6.482;2022-11-21T16:38:51;4.40;99.90
57218;DHT22;43078;52.972;6.482;2022-11-21T16:41:18;4.40;99.90
57218;DHT22;43078;52.972;6.482;2022-11-21T16:43:46;4.40;99.90
57218;DHT22;43078;52.972;6.482;2022-11-21T16:46:12;4.40;99.90
57218;DHT22;43078;52.972;6.482;2022-11-21T16:48:38;4.40;99.90
57218;DHT22;43078;52.972;6.482;2022-11-21T16:51:12;4.50;99.90
57218;DHT22;43078;52.972;6.482;2022-11-21T16:53:39;4.40;99.90
57218;DHT22;43078;52.972;6.482;2022-11-21T16:56:05;4.40;99.90
57218;DHT22;43078;52.972;6.482;2022-11-21T16:58:31;4.50;99.90
57218;DHT22;43078;52.972;6.482;2022-11-21T17:00:57;4.50;99.90
57218;DHT22;43078;52.972;6.482;2022-11-21T17:03:23;4.50;99.90
57218;DHT22;43078;52.972;6.482;2022-11-21T17:05:58;4.50;99.90
57218;DHT22;43078;52.972;6.482;2022-11-21T17:08:26;4.50;99.90
57218;DHT22;43078;52.972;6.482;2022-11-21T17:10:52;4.50;99.90
57218;DHT22;43078;52.972;6.482;2022-11-21T17:13:18;4.50;99.90
57218;DHT22;43078;52.972;6.482;2022-11-21T17:15:43;4.50;99.90
57218;DHT22;43078;52.972;6.482;2022-11-21T17:18:09;4.50;99.90
57218;DHT22;43078;52.972;6.482;2022-11-21T17:20:35;4.50;99.90
57218;DHT22;43078;52.972;6.482;2022-11-21T17:23:01;4.50;99.90
57218;DHT22;43078;52.972;6.482;2022-11-21T17:25:27;4.50;99.90
57218;DHT22;43078;52.972;6.482;2022-11-21T17:27:53;4.50;99.90
57218;DHT22;43078;52.972;6.482;2022-11-21T17:30:20;4.50;99.90
57218;DHT22;43078;52.972;6.482;2022-11-21T17:32:45;4.50;99.90
57218;DHT22;43078;52.972;6.482;2022-11-21T17:35:11;4.50;99.90
57218;DHT22;43078;52.972;6.482;2022-11-21T17:37:37;4.50;99.90
57218;DHT22;43078;52.972;6.482;2022-11-21T17:40:03;4.40;99.90
57218;DHT22;43078;52.972;6.482;2022-11-21T17:42:31;4.40;99.90
57218;DHT22;43078;52.972;6.482;2022-11-21T17:44:56;4.40;99.90
57218;DHT22;43078;52.972;6.482;2022-11-21T17:47:22;4.40;99.90
57218;DHT22;43078;52.972;6.482;2022-11-21T17:49:48;4.40;99.90
57218;DHT22;43078;52.972;6.482;2022-11-21T17:52:14;4.40;99.90
57218;DHT22;43078;52.972;6.482;2022-11-21T17:54:40;4.40;99.90
57218;DHT22;43078;52.972;6.482;2022-11-21T17:57:05;4.40;99.90
57218;DHT22;43078;52.972;6.482;2022-11-21T17:59:31;4.40;99.90
57218;DHT22;43078;52.972;6.482;2022-11-21T18:01:59;4.40;99.90
57218;DHT22;43078;52.972;6.482;2022-11-21T18:04:24;4.40;99.90
57218;DHT22;43078;52.972;6.482;2022-11-21T18:06:50;4.30;99.90
57218;DHT22;43078;52.972;6.482;2022-11-21T18:09:16;4.30;99.90
57218;DHT22;43078;52.972;6.482;2022-11-21T18:11:42;4.30;99.90
57218;DHT22;43078;52.972;6.482;2022-11-21T18:14:09;4.30;99.90